M I D A S
Marine Information and Data Acquisition System
Tripno 1906 of the Zeeleeuw from 2010-06-23 07:12:48 to 2010-06-23 14:53:10
Back to CruiseResearch ActivitiesStationsMapUnderway DataData graphs

EquipmentUnitsComment
TimeDGPSUTC
LatitudeDGPSDM.mWGS84
LongitudeDGPSDM.mWGS84
TemperatureSBE03/SBE38deg celciusITS90
ConductivitySBE21S/mITS90
SalinitySBE21 Practical Salinity Units
ChlorophylAChelsea fluorimeterg/lCalibrated in Aceton
Missing or incorrect values are displayed as -999
Sea surface data collected by the RV Zeeleeuw from 2010-06-23 06:39:38 to 2010-06-23 14:55:23
Time Latitude Longitude Temperature Conductivity Salinity ChlorophylA
2010-06-23 06:40:41 51°13.662 2°55.963 20.0848 0.050077 0.258637 -0.93092
2010-06-23 06:41:42 51°13.662 2°55.963 20.0883 0.050077 0.258652 -0.896096
2010-06-23 06:42:41 51°13.662 2°55.962 20.0848 0.049973 0.258111 -0.965744
2010-06-23 06:43:41 51°13.661 2°55.962 20.0858 0.050077 0.258671 -0.896096
2010-06-23 06:44:42 51°13.662 2°55.962 20.092 0.050077 0.258683 -0.896096
2010-06-23 06:45:41 51°13.661 2°55.961 20.0938 0.049973 0.258145 -0.93092
2010-06-23 06:46:42 51°13.661 2°55.961 20.0845 0.049765 0.257056 -0.93092
2010-06-23 06:47:41 51°13.661 2°55.961 20.0901 0.049869 0.257616 -0.896096
2010-06-23 06:48:41 51°13.661 2°55.961 20.0954 0.049765 0.257079 -0.93092
2010-06-23 06:49:41 51°13.661 2°55.961 20.1095 0.049765 0.257086 -0.93092
2010-06-23 06:50:41 51°13.662 2°55.962 20.1125 0.050077 0.258748 -0.93092
2010-06-23 06:51:42 51°13.662 2°55.962 20.1138 0.050077 0.258756 -0.896096
2010-06-23 06:52:42 51°13.661 2°55.962 20.1384 0.050077 0.258771 -0.93092
2010-06-23 06:53:42 51°13.66 2°55.959 20.0673 0.049765 0.257124 -0.93092
2010-06-23 06:54:45 51°13.677 2°55.903 20.1122 0.049037 0.253304 -0.93092
2010-06-23 06:55:45 51°13.694 2°55.803 20.128 0.050909 0.263195 -0.93092
2010-06-23 06:56:44 51°13.697 2°55.728 20.153 0.05195 0.268705 -0.93092
2010-06-23 06:57:43 51°13.719 2°55.742 20.0671 0.049765 0.257174 -0.93092
2010-06-23 06:58:44 51°13.719 2°55.744 20.1442 0.052158 0.269818 -0.93092
2010-06-23 06:59:43 51°13.752 2°55.713 20.1099 0.050077 0.258821 -0.93092
2010-06-23 07:00:42 51°13.821 2°55.647 20.0209 0.04446 0.229264 -0.93092
2010-06-23 07:01:41 51°13.891 2°55.634 20.1057 0.049453 0.255562 -0.896096
2010-06-23 07:02:41 51°13.944 2°55.639 20.164 0.05143 0.266023 -0.93092
2010-06-23 07:03:41 51°13.968 2°55.629 20.154 0.051534 0.266577 -0.965744
2010-06-23 07:04:41 51°13.986 2°55.616 20.1617 0.051846 0.268243 -0.965744
2010-06-23 07:05:41 51°13.995 2°55.608 20.1516 0.051118 0.264405 -0.93092
2010-06-23 07:06:42 51°14 2°55.603 20.1666 0.05143 0.26607 -0.896096
2010-06-23 07:07:41 51°14.002 2°55.604 20.1719 0.050597 0.261679 -0.93092
2010-06-23 07:08:41 51°14.028 2°55.569 20.1812 0.052158 0.26995 -0.93092
2010-06-23 07:09:41 51°14.103 2°55.458 20.1033 0.047893 0.2474 -0.965744
2010-06-23 07:10:42 51°14.206 2°55.353 20.1591 0.048101 0.248514 -0.93092
2010-06-23 07:11:41 51°14.324 2°55.241 20.1325 0.042692 0.220092 -0.93092
2010-06-23 07:12:41 51°14.482 2°55.077 20.1068 0.047893 0.247444 -0.93092
2010-06-23 07:13:41 51°14.648 2°54.904 20.0774 0.046645 0.240883 -0.93092
2010-06-23 07:14:41 51°14.816 2°54.728 20.0644 0.046437 0.239785 -0.93092
2010-06-23 07:15:41 51°14.993 2°54.531 20.0958 0.050493 0.261207 -0.93092
2010-06-23 07:16:41 51°15.169 2°54.323 20.11 0.048101 0.248581 -0.93092
2010-06-23 07:17:41 51°15.345 2°54.111 20.1405 0.049037 0.253525 -0.93092
2010-06-23 07:18:41 51°15.517 2°53.89 20.13 0.051013 0.263965 -0.93092
2010-06-23 07:19:41 51°15.687 2°53.669 20.1438 0.054342 0.281626 -0.965744
2010-06-23 07:20:40 51°15.854 2°53.452 20.1475 0.049869 0.257941 -0.93092
2010-06-23 07:21:41 51°16.027 2°53.233 20.1299 0.04446 0.22946 -0.93092
2010-06-23 07:22:41 51°16.215 2°53.057 20.1462 0.054446 0.282241 -0.896096
2010-06-23 07:23:40 51°16.414 2°52.927 20.1498 0.058191 0.302207 -0.93092
2010-06-23 07:24:41 51°16.617 2°52.784 20.1608 0.059024 0.306616 -0.965744
2010-06-23 07:25:41 51°16.813 2°52.635 20.158 0.062145 0.323306 -0.965744
2010-06-23 07:26:41 51°17.008 2°52.484 20.1709 0.06152 0.319959 -0.93092
2010-06-23 07:27:41 51°17.203 2°52.332 20.1848 0.055383 0.287261 -0.93092
2010-06-23 07:28:41 51°17.399 2°52.179 20.1719 0.060584 0.31499 -0.93092
2010-06-23 07:29:41 51°17.594 2°52.028 20.2002 0.058712 0.30503 -0.965744
2010-06-23 07:30:41 51°17.788 2°51.878 20.2108 0.057047 0.296157 -0.896096
2010-06-23 07:31:41 51°17.983 2°51.73 20.2229 0.058607 0.304493 -0.965744
2010-06-23 07:32:41 51°18.177 2°51.578 20.2004 0.061 0.317275 -0.965744
2010-06-23 07:33:41 51°18.363 2°51.402 20.2182 0.061208 0.318377 -0.93092
2010-06-23 07:34:41 51°18.544 2°51.211 20.2308 0.050077 0.259209 -0.93092
2010-06-23 07:35:41 51°18.725 2°51.02 20.2621 0.057671 0.299548 -0.93092
2010-06-23 07:36:41 51°18.908 2°50.831 20.262 0.051222 0.265313 -0.93092
2010-06-23 07:37:41 51°19.092 2°50.641 20.2627 0.058712 0.30514 -0.93092
2010-06-23 07:38:40 51°19.274 2°50.461 20.2849 0.055175 0.286318 -0.93092
2010-06-23 07:39:41 51°19.459 2°50.27 20.3004 0.051222 0.265384 -0.896096
2010-06-23 07:40:41 51°19.631 2°50.059 20.2909 0.052054 0.269785 -0.93092
2010-06-23 07:41:41 51°19.803 2°49.845 20.2939 0.055175 0.286365 -0.93092
2010-06-23 07:42:41 51°19.977 2°49.633 20.3061 0.05507 0.285842 -0.93092
2010-06-23 07:43:41 51°20.152 2°49.419 20.3291 0.053094 0.275351 -0.93092
2010-06-23 07:44:40 51°20.326 2°49.206 20.3155 0.049765 0.257709 -0.93092
2010-06-23 07:45:41 51°20.508 2°48.988 20.3434 0.055279 0.287 -0.93092
2010-06-23 07:46:41 51°20.688 2°48.772 20.3601 0.052574 0.272661 -0.93092
2010-06-23 07:47:40 51°20.865 2°48.564 20.3427 0.053718 0.278764 -0.93092
2010-06-23 07:48:41 51°21.046 2°48.355 20.3698 0.055903 0.290386 -0.93092
2010-06-23 07:49:40 51°21.219 2°48.154 20.3771 0.05247 0.272162 -0.896096
2010-06-23 07:50:40 51°21.397 2°47.95 20.3816 0.054966 0.285468 -0.93092
2010-06-23 07:51:40 51°21.579 2°47.761 20.3934 0.057463 0.29878 -0.93092
2010-06-23 07:52:40 51°21.769 2°47.587 20.3846 0.054238 0.281625 -0.93092
2010-06-23 07:53:40 51°21.958 2°47.412 20.3957 0.050805 0.263444 -0.965744
2010-06-23 07:54:40 51°22.146 2°47.233 20.4153 0.061104 0.318329 -0.93092
2010-06-23 07:55:40 51°22.321 2°47.027 20.4312 0.065266 0.340605 -0.965744
2010-06-23 07:56:40 51°22.495 2°46.816 20.4502 0.05996 0.312234 -0.965744
2010-06-23 07:57:40 51°22.669 2°46.607 20.4566 0.056423 0.293376 -0.93092
2010-06-23 07:58:40 51°22.839 2°46.39 20.4532 0.052574 0.272852 -0.93092
2010-06-23 07:59:41 51°23.006 2°46.154 20.4706 0.062665 0.326802 -0.93092
2010-06-23 08:00:41 51°23.171 2°45.922 20.4772 0.055175 0.286764 -0.965744
2010-06-23 08:01:41 51°23.336 2°45.688 20.4828 0.054862 0.285128 -0.93092
2010-06-23 08:02:41 51°23.502 2°45.454 20.5042 0.058399 0.304014 -0.93092
2010-06-23 08:03:41 51°23.668 2°45.227 20.5106 0.055695 0.289604 -0.93092
2010-06-23 08:04:41 51°23.835 2°45 20.5227 0.053822 0.279676 -0.93092
2010-06-23 08:05:41 51°24.002 2°44.773 20.5035 0.053302 0.276918 -0.965744
2010-06-23 08:06:40 51°24.166 2°44.548 20.4773 0.050389 0.261486 -0.965744
2010-06-23 08:07:40 51°24.369 2°44.492 20.3905 0.063185 0.329826 -0.93092
2010-06-23 08:08:40 51°24.477 2°44.801 20.4632 0.103352 0.548982 -0.93092
2010-06-23 08:09:40 51°24.532 2°45.164 20.4917 0.091383 0.483055 -0.93092
2010-06-23 08:10:40 51°24.603 2°45.521 20.4978 0.071612 0.375425 -0.93092
2010-06-23 08:11:40 51°24.688 2°45.868 20.5174 0.061104 0.318795 -0.896096
2010-06-23 08:12:40 51°24.799 2°46.198 20.5363 0.049453 0.256651 -0.93092
2010-06-23 08:13:40 51°24.909 2°46.531 20.5536 0.066306 0.346847 -0.93092
2010-06-23 08:14:40 51°25.017 2°46.866 20.5509 0.061937 0.323337 -0.965744
2010-06-23 08:15:40 51°25.124 2°47.203 20.573 0.052574 0.27333 -0.965744
2010-06-23 08:16:40 51°25.231 2°47.539 20.5909 0.056319 0.293345 -0.93092
2010-06-23 08:17:40 51°25.348 2°47.865 20.5972 0.083058 0.437836 -0.93092
2010-06-23 08:18:40 51°25.473 2°48.181 20.613 0.053614 0.278975 -0.965744
2010-06-23 08:19:40 51°25.599 2°48.498 20.6204 0.061416 0.320749 -0.93092
2010-06-23 08:20:41 51°25.726 2°48.823 20.6293 0.058191 0.303496 -0.93092
2010-06-23 08:21:41 51°25.851 2°49.145 20.645 0.05455 0.284072 -0.965744
2010-06-23 08:22:41 51°25.975 2°49.468 20.6339 0.057255 0.298581 -0.93092
2010-06-23 08:23:41 51°26.1 2°49.791 20.6662 0.052054 0.270836 -0.93092
2010-06-23 08:24:41 51°26.225 2°50.114 20.6953 0.055279 0.288031 -0.93092
2010-06-23 08:25:41 51°26.348 2°50.438 20.6805 0.063081 0.329911 -0.93092
2010-06-23 08:26:41 51°26.473 2°50.762 20.7195 0.065266 0.3417 -0.93092
2010-06-23 08:27:41 51°26.597 2°51.087 20.7119 0.053302 0.277592 -0.93092
2010-06-23 08:28:41 51°26.721 2°51.409 20.7262 0.063497 0.33226 -0.896096
2010-06-23 08:29:41 51°26.845 2°51.732 20.7402 0.065266 0.341809 -0.93092
2010-06-23 08:30:40 51°26.966 2°52.05 20.7503 0.053718 0.279878 -0.93092
2010-06-23 08:31:40 51°27.089 2°52.373 20.7722 0.054654 0.284901 -0.93092
2010-06-23 08:32:40 51°27.213 2°52.694 20.781 0.070156 0.368351 -0.93092
2010-06-23 08:33:40 51°27.335 2°53.016 20.803 0.059128 0.308939 -0.93092
2010-06-23 08:34:40 51°27.459 2°53.334 20.7891 0.051014 0.265565 -0.93092
2010-06-23 08:35:40 51°27.583 2°53.652 20.7904 0.054967 0.28668 -0.93092
2010-06-23 08:36:40 51°27.706 2°53.972 20.8242 0.065578 0.343712 -0.93092
2010-06-23 08:37:40 51°27.828 2°54.292 20.8222 0.057671 0.301262 -0.93092
2010-06-23 08:38:40 51°27.952 2°54.611 20.8328 0.064954 0.340437 -0.965744
2010-06-23 08:39:40 51°28.076 2°54.931 20.8728 0.073693 0.387801 -0.93092
2010-06-23 08:40:40 51°28.201 2°55.25 20.877 0.05996 0.313595 -0.896096
2010-06-23 08:41:40 51°28.326 2°55.572 20.8811 0.058816 0.307455 -0.93092
2010-06-23 08:42:40 51°28.453 2°55.894 20.8697 0.05351 0.279058 -0.896096
2010-06-23 08:43:40 51°28.58 2°56.219 20.8941 0.060376 0.315879 -0.93092
2010-06-23 08:44:40 51°28.706 2°56.545 20.9105 0.060064 0.314297 -0.896096
2010-06-23 08:45:40 51°28.833 2°56.873 20.9225 0.081185 0.428966 -0.965744
2010-06-23 08:46:40 51°28.961 2°57.2 20.9299 0.053614 0.279702 -0.93092
2010-06-23 08:47:40 51°29.084 2°57.531 20.9526 0.068595 0.360372 -0.93092
2010-06-23 08:48:40 51°29.208 2°57.864 20.9478 0.055487 0.289788 -0.965744
2010-06-23 08:49:40 51°29.333 2°58.197 20.9489 0.05944 0.311018 -0.93092
2010-06-23 08:50:41 51°29.459 2°58.535 20.9521 0.061416 0.321757 -0.965744
2010-06-23 08:51:41 51°29.583 2°58.869 20.9991 0.068179 0.358271 -0.965744
2010-06-23 08:52:41 51°29.707 2°59.202 20.967 0.073069 0.384915 -0.896096
2010-06-23 08:53:41 51°29.832 2°59.535 20.9983 0.070988 0.37359 -0.93092
2010-06-23 08:54:41 51°29.958 2°59.87 21.0242 0.058295 0.304996 -0.965744
2010-06-23 08:55:41 51°30.084 3°0.208 21.0219 0.059232 0.310074 -0.965744
2010-06-23 08:56:41 51°30.21 3°0.548 21.0411 0.058608 0.306747 -0.93092
2010-06-23 08:57:41 51°30.327 3°0.864 21.0771 0.058504 0.306179 -0.965744
2010-06-23 08:58:41 51°30.406 3°1.076 21.0568 0.080353 0.424859 -0.965744
2010-06-23 08:59:41 51°30.443 3°1.221 21.1122 0.10127 0.54011 -0.965744
2010-06-23 09:00:41 51°30.458 3°1.328 21.1033 0.135206 0.730688 -0.896096
2010-06-23 09:01:41 51°30.465 3°1.413 21.1241 0.094297 0.501948 -0.93092
2010-06-23 09:02:41 51°30.47 3°1.485 21.1163 0.120527 0.648447 -0.896096
2010-06-23 09:03:41 51°30.474 3°1.548 21.1439 0.135414 0.732161 -0.93092
2010-06-23 09:04:41 51°30.479 3°1.604 21.1554 0.131978 0.712877 -0.93092
2010-06-23 09:05:41 51°30.484 3°1.657 21.1443 0.087013 0.462133 -0.93092
2010-06-23 09:06:41 51°30.491 3°1.707 21.1621 0.114489 0.614701 -0.965744
2010-06-23 09:07:41 51°30.5 3°1.754 21.183 0.100126 0.534849 -0.93092
2010-06-23 09:08:41 51°30.508 3°1.799 21.1851 0.122609 0.66032 -0.965744
2010-06-23 09:09:41 51°30.518 3°1.843 21.1958 0.107723 0.577027 -0.93092
2010-06-23 09:10:41 51°30.527 3°1.884 21.1972 0.128751 0.69451 -0.965744
2010-06-23 09:11:41 51°30.538 3°1.92 21.186 0.094089 0.501838 -0.965744
2010-06-23 09:12:41 51°30.549 3°1.955 21.2126 0.076087 0.402754 -0.93092
2010-06-23 09:13:40 51°30.562 3°1.99 21.2164 0.075254 0.398514 -0.965744
2010-06-23 09:14:40 51°30.575 3°2.027 21.2151 0.077127 0.408789 -0.93092
2010-06-23 09:15:40 51°30.589 3°2.065 21.2346 0.100334 0.537022 -0.965744
2010-06-23 09:16:40 51°30.602 3°2.104 21.2417 0.07411 0.392236 -0.93092
2010-06-23 09:17:40 51°30.616 3°2.144 21.2509 0.110638 0.594936 -0.965744
2010-06-23 09:18:40 51°30.629 3°2.185 21.2473 0.104185 0.558741 -0.93092
2010-06-23 09:19:40 51°30.632 3°2.266 21.3192 0.114281 0.615529 -0.93092
2010-06-23 09:20:40 51°30.697 3°2.432 21.2454 0.066202 0.349171 -0.93092
2010-06-23 09:21:40 51°30.839 3°2.707 21.2036 0.085244 0.453661 -0.93092
2010-06-23 09:22:40 51°30.973 3°3.036 21.2358 0.067035 0.353765 -0.93092
2010-06-23 09:23:40 51°31.108 3°3.364 21.2282 0.064954 0.342438 -0.93092
2010-06-23 09:24:40 51°31.243 3°3.69 21.2502 0.065266 0.344186 -0.93092
2010-06-23 09:25:40 51°31.378 3°4.018 21.2647 0.079104 0.419942 -0.965744
2010-06-23 09:26:40 51°31.513 3°4.346 21.2841 0.067763 0.357925 -0.93092
2010-06-23 09:27:40 51°31.648 3°4.675 21.2864 0.068803 0.363531 -0.93092
2010-06-23 09:28:40 51°31.782 3°5.003 21.2972 0.059232 0.31153 -0.965744
2010-06-23 09:29:40 51°31.928 3°5.317 21.3879 0.102728 0.550796 -0.965744
2010-06-23 09:30:40 51°32.136 3°5.443 21.442 0.052678 0.276171 -0.965744
2010-06-23 09:31:40 51°32.291 3°5.24 21.3211 0.050702 0.265603 -0.93092
2010-06-23 09:32:40 51°32.422 3°4.98 21.3443 0.051014 0.267247 -0.93092
2010-06-23 09:33:40 51°32.555 3°4.721 21.3487 0.049973 0.261693 -0.93092
2010-06-23 09:34:40 51°32.692 3°4.466 21.3691 0.05143 0.269485 -0.93092
2010-06-23 09:35:40 51°32.832 3°4.214 21.3828 0.058296 0.306427 -0.965744
2010-06-23 09:36:40 51°32.968 3°3.961 21.3588 0.046437 0.242795 -0.93092
2010-06-23 09:37:40 51°33.105 3°3.709 21.3824 0.052574 0.275688 -0.93092
2010-06-23 09:38:40 51°33.242 3°3.458 21.3438 0.051534 0.270099 -0.965744
2010-06-23 09:39:40 51°33.321 3°3.185 21.5024 0.049765 0.260623 -0.965744
2010-06-23 09:40:40 51°33.225 3°2.928 21.3925 0.054238 0.284639 -0.93092
2010-06-23 09:41:40 51°33.119 3°2.668 21.403 0.05091 0.266726 -0.965744
2010-06-23 09:42:40 51°33.014 3°2.407 21.4108 0.055591 0.29192 -0.965744
2010-06-23 09:43:40 51°32.91 3°2.145 21.4378 0.055279 0.290209 -0.93092
2010-06-23 09:44:40 51°32.807 3°1.884 21.4258 0.052158 0.273472 -0.93092
2010-06-23 09:45:40 51°32.703 3°1.624 21.4654 0.057463 0.30203 -0.965744
2010-06-23 09:46:40 51°32.6 3°1.366 21.432 0.046957 0.245616 -0.93092
2010-06-23 09:47:40 51°32.497 3°1.107 21.4746 0.062457 0.329029 -0.93092
2010-06-23 09:48:40 51°32.396 3°0.847 21.4775 0.061833 0.325672 -0.965744
2010-06-23 09:49:40 51°32.295 3°0.587 21.4456 0.054758 0.287471 -0.93092
2010-06-23 09:50:40 51°32.197 3°0.328 21.4678 0.058608 0.308258 -0.965744
2010-06-23 09:51:41 51°32.096 3°0.068 21.4941 0.057151 0.30036 -0.965744
2010-06-23 09:52:41 51°31.995 2°59.81 21.5126 0.063393 0.334218 -0.965744
2010-06-23 09:53:41 51°31.897 2°59.556 21.5355 0.061937 0.326306 -0.965744
2010-06-23 09:54:41 51°31.797 2°59.3 21.5288 0.062769 0.330802 -0.93092
2010-06-23 09:55:41 51°31.697 2°59.044 21.544 0.061521 0.324057 -0.93092
2010-06-23 09:56:41 51°31.606 2°58.784 21.5463 0.059544 0.313394 -0.965744
2010-06-23 09:57:41 51°31.517 2°58.518 21.5595 0.06641 0.350689 -0.93092
2010-06-23 09:58:41 51°31.427 2°58.254 21.5619 0.054446 0.285897 -0.965744
2010-06-23 09:59:41 51°31.337 2°57.988 21.5695 0.054342 0.285354 -0.93092
2010-06-23 10:00:41 51°31.246 2°57.722 21.5742 0.059024 0.31061 -0.93092
2010-06-23 10:01:41 51°31.155 2°57.456 21.5659 0.060168 0.316833 -0.93092
2010-06-23 10:02:41 51°31.065 2°57.189 21.5897 0.05195 0.272488 -0.896096
2010-06-23 10:03:41 51°30.974 2°56.923 21.5874 0.05892 0.310062 -0.965744
2010-06-23 10:04:41 51°30.882 2°56.658 21.588 0.05455 0.286509 -0.93092
2010-06-23 10:05:41 51°30.79 2°56.391 21.6143 0.063185 0.333227 -0.93092
2010-06-23 10:06:40 51°30.7 2°56.129 21.6292 0.059648 0.31409 -0.93092
2010-06-23 10:07:41 51°30.606 2°55.858 21.6259 0.058816 0.309585 -0.93092
2010-06-23 10:08:40 51°30.516 2°55.596 21.6124 0.061312 0.323127 -0.93092
2010-06-23 10:09:41 51°30.423 2°55.324 21.6613 0.0584 0.307364 -0.965744
2010-06-23 10:10:41 51°30.332 2°55.056 21.6488 0.055383 0.291119 -0.93092
2010-06-23 10:11:41 51°30.242 2°54.787 21.6465 0.052574 0.275998 -0.93092
2010-06-23 10:12:41 51°30.15 2°54.52 21.6378 0.052574 0.276007 -0.93092
2010-06-23 10:13:41 51°30.058 2°54.25 21.6838 0.055175 0.290011 -0.965744
2010-06-23 10:14:40 51°29.968 2°53.984 21.677 0.054863 0.288334 -0.965744
2010-06-23 10:15:41 51°29.875 2°53.711 21.703 0.049453 0.25929 -0.93092
2010-06-23 10:16:41 51°29.785 2°53.441 21.6818 0.05996 0.31591 -0.93092
2010-06-23 10:17:41 51°29.694 2°53.171 21.7021 0.055591 0.292307 -0.965744
2010-06-23 10:18:41 51°29.602 2°52.899 21.7189 0.05892 0.310304 -0.93092
2010-06-23 10:19:41 51°29.512 2°52.625 21.7223 0.058296 0.306956 -0.965744
2010-06-23 10:20:41 51°29.422 2°52.353 21.7238 0.056423 0.296859 -0.93092
2010-06-23 10:21:41 51°29.333 2°52.082 21.7151 0.058816 0.309831 -0.93092
2010-06-23 10:22:40 51°29.246 2°51.813 21.7498 0.063289 0.334135 -0.93092
2010-06-23 10:23:40 51°29.157 2°51.542 21.7565 0.058608 0.308753 -0.93092
2010-06-23 10:24:41 51°29.067 2°51.267 21.7757 0.063809 0.336988 -0.93092
2010-06-23 10:25:41 51°28.98 2°50.996 21.7405 0.059336 0.312737 -0.93092
2010-06-23 10:26:41 51°28.893 2°50.725 21.79 0.067971 0.359727 -0.93092
2010-06-23 10:27:40 51°28.807 2°50.458 21.7986 0.057983 0.305461 -0.965744
2010-06-23 10:28:40 51°28.72 2°50.187 21.786 0.063497 0.335363 -0.93092
2010-06-23 10:29:41 51°28.634 2°49.909 21.7798 0.058816 0.309959 -0.93092
2010-06-23 10:30:41 51°28.549 2°49.637 21.7947 0.060792 0.320717 -0.965744
2010-06-23 10:31:41 51°28.465 2°49.363 21.8044 0.062873 0.332043 -0.93092
2010-06-23 10:32:41 51°28.38 2°49.091 21.8225 0.05455 0.286976 -0.965744
2010-06-23 10:33:41 51°28.295 2°48.818 21.8471 0.055175 0.290347 -0.965744
2010-06-23 10:34:41 51°28.211 2°48.546 21.8383 0.052054 0.273561 -0.93092
2010-06-23 10:35:41 51°28.129 2°48.272 21.8383 0.061104 0.322494 -0.93092
2010-06-23 10:36:41 51°28.045 2°47.997 21.8584 0.053822 0.283146 -0.93092
2010-06-23 10:37:41 51°27.962 2°47.721 21.8817 0.061729 0.325942 -0.93092
2010-06-23 10:38:41 51°27.879 2°47.445 21.8393 0.05944 0.313574 -0.93092
2010-06-23 10:39:41 51°27.796 2°47.17 21.8772 0.054342 0.285985 -0.93092
2010-06-23 10:40:41 51°27.713 2°46.895 21.8931 0.056631 0.298388 -0.965744
2010-06-23 10:41:40 51°27.631 2°46.626 21.889 0.053926 0.283789 -0.965744
2010-06-23 10:42:41 51°27.548 2°46.35 21.8975 0.05195 0.273143 -0.93092
2010-06-23 10:43:41 51°27.465 2°46.08 21.9031 0.056631 0.29842 -0.965744
2010-06-23 10:44:40 51°27.379 2°45.823 21.9428 0.063497 0.335704 -0.93092
2010-06-23 10:45:41 51°27.258 2°45.597 21.9477 0.050181 0.263648 -0.93092
2010-06-23 10:46:40 51°27.138 2°45.384 21.9334 0.053094 0.279355 -0.93092
2010-06-23 10:47:40 51°27.017 2°45.163 21.8902 0.058296 0.307521 -0.965744
2010-06-23 10:48:40 51°26.896 2°44.942 21.9595 0.058087 0.306403 -0.93092
2010-06-23 10:49:41 51°26.773 2°44.716 21.9636 0.056735 0.299097 -0.93092
2010-06-23 10:50:41 51°26.652 2°44.493 21.8901 0.05892 0.310965 -0.965744
2010-06-23 10:51:41 51°26.548 2°44.25 21.9383 0.062977 0.333058 -0.93092
2010-06-23 10:52:40 51°26.448 2°44.005 21.9751 0.058296 0.307653 -0.965744
2010-06-23 10:53:41 51°26.35 2°43.747 21.906 0.052678 0.277248 -0.93092
2010-06-23 10:54:41 51°26.336 2°43.446 21.973 0.071092 0.37752 -0.965744
2010-06-23 10:55:41 51°26.407 2°43.17 21.9297 0.082122 0.438284 -0.93092
2010-06-23 10:56:41 51°26.604 2°43.01 21.9893 0.12136 0.657943 -0.965744
2010-06-23 10:57:41 51°26.802 2°42.841 22.0251 0.12136 0.658026 -0.965744
2010-06-23 10:58:41 51°27 2°42.673 22.0261 0.223844 1.250305 -0.93092
2010-06-23 10:59:41 51°27.2 2°42.507 22.0397 0.11553 0.625182 -0.93092
2010-06-23 11:00:41 51°27.401 2°42.342 22.0321 0.138017 0.752817 -0.93092
2010-06-23 11:01:41 51°27.602 2°42.178 22.0515 0.194985 1.081488 -0.965744
2010-06-23 11:02:41 51°27.819 2°42.126 21.9546 0.181964 1.006125 -0.965744
2010-06-23 11:03:41 51°27.998 2°42.4 22.0483 0.283566 1.605648 -0.93092
2010-06-23 11:04:41 51°28.131 2°42.746 22.0292 0.120527 0.653635 -0.93092
2010-06-23 11:05:41 51°28.238 2°43.113 22.0882 0.169049 0.931329 -0.93092
2010-06-23 11:06:41 51°28.344 2°43.481 22.0868 0.125107 0.679723 -0.93092
2010-06-23 11:07:41 51°28.45 2°43.847 22.0833 0.154365 0.846949 -0.93092
2010-06-23 11:08:41 51°28.555 2°44.214 22.0642 0.14062 0.768188 -0.93092
2010-06-23 11:09:40 51°28.656 2°44.575 22.1019 0.150512 0.824933 -0.93092
2010-06-23 11:10:40 51°28.761 2°44.942 22.1178 0.164258 0.90402 -0.93092
2010-06-23 11:11:41 51°28.867 2°45.316 22.1087 0.146867 0.804013 -0.93092
2010-06-23 11:12:41 51°28.971 2°45.685 22.1111 0.148221 0.811886 -0.965744
2010-06-23 11:13:41 51°29.074 2°46.056 22.1173 0.117508 0.636973 -0.965744
2010-06-23 11:14:41 51°29.188 2°46.417 22.0943 0.09794 0.526936 -0.965744
2010-06-23 11:15:41 51°29.345 2°46.738 22.1454 0.083579 0.447 -0.93092
2010-06-23 11:16:41 51°29.481 2°47.077 22.1299 0.181443 1.003946 -0.93092
2010-06-23 11:17:41 51°29.584 2°47.447 22.1637 0.262405 1.480365 -0.93092
2010-06-23 11:18:41 51°29.689 2°47.82 22.1624 0.134685 0.734784 -0.93092
2010-06-23 11:19:41 51°29.795 2°48.194 22.16 0.167591 0.923639 -0.93092
2010-06-23 11:20:41 51°29.903 2°48.566 22.1572 0.1173 0.636097 -0.965744
2010-06-23 11:21:41 51°29.985 2°48.947 22.1637 0.123129 0.669177 -0.965744
2010-06-23 11:22:40 51°30.049 2°49.329 22.1848 0.161238 0.88714 -0.93092
2010-06-23 11:23:41 51°30.119 2°49.724 22.1823 0.106787 0.576878 -0.965744
2010-06-23 11:24:40 51°30.194 2°50.099 22.1721 0.230201 1.289552 -0.965744
2010-06-23 11:25:41 51°30.305 2°50.467 22.205 0.185505 1.027478 -0.93092
2010-06-23 11:26:41 51°30.411 2°50.829 22.2198 0.126461 0.688062 -0.965744
2010-06-23 11:27:41 51°30.536 2°51.172 22.2366 0.094714 0.509235 -0.93092
2010-06-23 11:28:41 51°30.681 2°51.497 22.2103 0.10814 0.58459 -0.965744
2010-06-23 11:29:41 51°30.822 2°51.823 22.2295 0.111575 0.603939 -0.965744
2010-06-23 11:30:41 51°30.963 2°52.147 22.2541 0.10023 0.540136 -0.93092
2010-06-23 11:31:41 51°31.102 2°52.472 22.2393 0.128022 0.697099 -0.965744
2010-06-23 11:32:41 51°31.242 2°52.797 22.247 0.104601 0.564702 -0.93092
2010-06-23 11:33:40 51°31.378 2°53.115 22.2518 0.110326 0.596983 -0.965744
2010-06-23 11:34:41 51°31.521 2°53.444 22.2784 0.126877 0.690721 -0.965744
2010-06-23 11:35:41 51°31.654 2°53.773 22.282 0.102832 0.554855 -0.965744
2010-06-23 11:36:41 51°31.774 2°54.117 22.2796 0.098564 0.530928 -0.93092
2010-06-23 11:37:40 51°31.893 2°54.453 22.297 0.097316 0.523939 -0.965744
2010-06-23 11:38:41 51°32.016 2°54.8 22.2922 0.105746 0.571297 -0.93092
2010-06-23 11:39:41 51°32.138 2°55.139 22.3109 0.113032 0.612275 -0.93092
2010-06-23 11:40:40 51°32.258 2°55.474 22.3186 0.098981 0.533259 -0.965744
2010-06-23 11:41:41 51°32.386 2°55.816 22.3487 0.093049 0.500107 -0.93092
2010-06-23 11:42:41 51°32.534 2°56.128 22.332 0.118445 0.642745 -0.965744
2010-06-23 11:43:40 51°32.694 2°56.419 22.3242 0.107203 0.57931 -0.965744
2010-06-23 11:44:41 51°32.845 2°56.736 22.3318 0.114073 0.61818 -0.965744
2010-06-23 11:45:41 51°32.965 2°57.077 22.3465 0.134061 0.731674 -0.965744
2010-06-23 11:46:41 51°33.085 2°57.418 22.3517 0.177173 0.979858 -0.965744
2010-06-23 11:47:41 51°33.207 2°57.757 22.348 0.149367 0.819205 -0.93092
2010-06-23 11:48:40 51°33.326 2°58.091 22.3644 0.259591 1.464827 -0.965744
2010-06-23 11:49:40 51°33.45 2°58.43 22.3459 0.120943 0.657139 -0.93092
2010-06-23 11:50:40 51°33.573 2°58.767 22.3936 0.112928 0.611774 -0.93092
2010-06-23 11:51:41 51°33.697 2°59.11 22.3731 0.135414 0.739407 -0.93092
2010-06-23 11:52:40 51°33.818 2°59.443 22.4001 0.097107 0.52284 -0.93092
2010-06-23 11:53:41 51°33.944 2°59.784 22.4006 0.12948 0.705611 -0.965744
2010-06-23 11:54:40 51°34.065 3°0.113 22.4039 0.13479 0.735843 -0.93092
2010-06-23 11:55:41 51°34.191 3°0.452 22.4031 0.121256 0.658816 -0.93092
2010-06-23 11:56:40 51°34.313 3°0.78 22.4184 0.136143 0.743613 -0.93092
2010-06-23 11:57:41 51°34.44 3°1.117 22.4075 0.110014 0.595215 -0.93092
2010-06-23 11:58:40 51°34.563 3°1.445 22.4179 0.091279 0.490225 -0.93092
2010-06-23 11:59:40 51°34.752 3°1.648 22.4485 0.143431 0.784815 -0.93092
2010-06-23 12:00:40 51°34.99 3°1.632 22.5996 0.099501 0.536316 -0.965744
2010-06-23 12:01:41 51°35.142 3°1.37 22.4462 0.114177 0.618661 -0.93092
2010-06-23 12:02:41 51°35.235 3°1.049 22.4306 0.092008 0.494193 -0.93092
2010-06-23 12:03:40 51°35.314 3°0.73 22.442 0.108452 0.58644 -0.965744
2010-06-23 12:04:41 51°35.412 3°0.41 22.4381 0.090447 0.485624 -0.965744
2010-06-23 12:05:40 51°35.513 3°0.105 22.4467 0.177277 0.980447 -0.965744
2010-06-23 12:06:41 51°35.62 2°59.789 22.4655 0.129063 0.703219 -0.93092
2010-06-23 12:07:40 51°35.722 2°59.486 22.4487 0.156031 0.857652 -0.965744
2010-06-23 12:08:41 51°35.826 2°59.172 22.6316 0.283566 1.608134 -0.93092
2010-06-23 12:09:40 51°35.791 2°58.878 22.4588 0.119694 0.649856 -0.965744
2010-06-23 12:10:41 51°35.697 2°58.586 22.4795 0.128126 0.697834 -0.965744
2010-06-23 12:11:41 51°35.602 2°58.298 22.4852 0.104393 0.563745 -0.965744
2010-06-23 12:12:40 51°35.508 2°58.015 22.4767 0.119902 0.65121 -0.93092
2010-06-23 12:13:41 51°35.412 2°57.721 22.4898 0.102103 0.550871 -0.93092
2010-06-23 12:14:41 51°35.319 2°57.435 22.4865 0.151241 0.830179 -0.965744
2010-06-23 12:15:41 51°35.22 2°57.155 22.5049 0.11782 0.639494 -0.896096
2010-06-23 12:16:40 51°35.119 2°56.888 22.5224 0.113761 0.616524 -0.93092
2010-06-23 12:17:41 51°35.015 2°56.611 22.5252 0.13531 0.739046 -0.965744
2010-06-23 12:18:40 51°34.915 2°56.344 22.5145 0.124171 0.675657 -0.93092
2010-06-23 12:19:41 51°34.811 2°56.066 22.5268 0.125836 0.685055 -0.93092
2010-06-23 12:20:41 51°34.707 2°55.792 22.5226 0.143744 0.787238 -0.965744
2010-06-23 12:21:41 51°34.605 2°55.517 22.5393 0.163425 0.900569 -0.93092
2010-06-23 12:22:41 51°34.502 2°55.243 22.5343 0.13531 0.739093 -0.93092
2010-06-23 12:23:41 51°34.399 2°54.967 22.5511 0.115218 0.624943 -0.965744
2010-06-23 12:24:41 51°34.296 2°54.692 22.5564 0.124899 0.679839 -0.965744
2010-06-23 12:25:40 51°34.193 2°54.42 22.5415 0.112928 0.612025 -0.93092
2010-06-23 12:26:41 51°34.088 2°54.138 22.5529 0.169361 0.935045 -0.965744
2010-06-23 12:27:40 51°33.984 2°53.864 22.5336 0.155094 0.852635 -0.965744
2010-06-23 12:28:40 51°33.881 2°53.585 22.5693 0.111575 0.604424 -0.965744
2010-06-23 12:29:40 51°33.779 2°53.306 22.5443 0.111263 0.602691 -0.93092
2010-06-23 12:30:40 51°33.684 2°53.019 22.58 0.139683 0.764346 -0.965744
2010-06-23 12:31:41 51°33.575 2°52.739 22.5759 0.121152 0.658693 -0.965744
2010-06-23 12:32:40 51°33.464 2°52.471 22.5587 0.169361 0.935119 -0.965744
2010-06-23 12:33:41 51°33.349 2°52.192 22.5992 0.123858 0.674054 -0.965744
2010-06-23 12:34:41 51°33.234 2°51.917 22.6068 0.183526 1.01744 -0.93092
2010-06-23 12:35:41 51°33.112 2°51.653 22.6021 0.117196 0.636341 -0.93092
2010-06-23 12:36:40 51°33.003 2°51.39 22.6114 0.141245 0.773334 -0.93092
2010-06-23 12:37:41 51°32.895 2°51.114 22.6006 0.099605 0.537279 -0.965744
2010-06-23 12:38:40 51°32.802 2°50.839 22.6208 0.146034 0.801066 -0.965744
2010-06-23 12:39:40 51°32.706 2°50.56 22.6058 0.125316 0.682787 -0.965744
2010-06-23 12:40:41 51°32.607 2°50.276 22.628 0.132083 0.72147 -0.93092
2010-06-23 12:41:40 51°32.512 2°50.001 22.6219 0.156968 0.864419 -0.93092
2010-06-23 12:42:41 51°32.413 2°49.716 22.5996 0.13354 0.730079 -0.965744
2010-06-23 12:43:40 51°32.317 2°49.442 22.607 0.144993 0.795798 -0.965744
2010-06-23 12:44:41 51°32.218 2°49.159 22.653 0.162071 0.894397 -0.93092
2010-06-23 12:45:40 51°32.123 2°48.885 22.6578 0.113344 0.615531 -0.965744
2010-06-23 12:46:41 51°32.024 2°48.603 22.6589 0.099293 0.536448 -0.965744
2010-06-23 12:47:40 51°31.93 2°48.329 22.6589 0.122505 0.667838 -0.93092
2010-06-23 12:48:41 51°31.831 2°48.045 22.6572 0.157697 0.869855 -0.93092
2010-06-23 12:49:40 51°31.737 2°47.77 22.6672 0.165299 0.914027 -0.965744
2010-06-23 12:50:41 51°31.638 2°47.483 22.6698 0.12188 0.664685 -0.93092
2010-06-23 12:51:41 51°31.541 2°47.2 22.6707 0.123754 0.675556 -0.965744
2010-06-23 12:52:40 51°31.446 2°46.921 22.6778 0.155198 0.85625 -0.965744
2010-06-23 12:53:40 51°31.349 2°46.635 22.6768 0.139579 0.766397 -0.93092
2010-06-23 12:54:40 51°31.251 2°46.348 22.6682 0.116051 0.632156 -0.965744
2010-06-23 12:55:40 51°31.153 2°46.06 22.6819 0.117612 0.641229 -0.93092
2010-06-23 12:56:40 51°31.055 2°45.771 22.6479 0.139163 0.764516 -0.965744
2010-06-23 12:57:41 51°30.953 2°45.476 22.6718 0.124587 0.68122 -1.000568
2010-06-23 12:58:40 51°30.852 2°45.194 22.6838 0.17436 0.968699 -0.965744
2010-06-23 12:59:40 51°30.749 2°44.914 22.6977 0.161863 0.896201 -0.965744
2010-06-23 13:00:41 51°30.649 2°44.625 22.6967 0.147701 0.814405 -0.965744
2010-06-23 13:01:40 51°30.553 2°44.347 22.7055 0.130313 0.714601 -0.965744
2010-06-23 13:02:40 51°30.451 2°44.071 22.7072 0.114802 0.626157 -0.93092
2010-06-23 13:03:41 51°30.346 2°43.792 22.7262 0.176548 0.982444 -0.93092
2010-06-23 13:04:41 51°30.242 2°43.516 22.6957 0.162384 0.900244 -0.93092
2010-06-23 13:05:40 51°30.138 2°43.247 22.7037 0.190401 1.064097 -0.965744
2010-06-23 13:06:41 51°30.031 2°42.966 22.7122 0.143744 0.792652 -0.93092
2010-06-23 13:07:40 51°29.929 2°42.692 22.7412 0.204048 1.14482 -0.965744
2010-06-23 13:08:40 51°29.825 2°42.413 22.7334 0.140724 0.775467 -0.93092
2010-06-23 13:09:40 51°29.72 2°42.133 22.7224 0.115843 0.633032 -0.93092
2010-06-23 13:10:41 51°29.615 2°41.846 22.7133 0.120007 0.656914 -0.965744
2010-06-23 13:11:40 51°29.514 2°41.569 22.7225 0.095546 0.518287 -0.965744
2010-06-23 13:12:40 51°29.416 2°41.28 22.7566 0.109805 0.59916 -0.965744
2010-06-23 13:13:41 51°29.316 2°40.987 22.7484 0.102832 0.559726 -0.965744
2010-06-23 13:14:44 51°29.215 2°40.686 22.7617 0.100438 0.546241 -0.965744
2010-06-23 13:15:44 51°29.118 2°40.395 22.752 0.113969 0.623226 -0.93092
2010-06-23 13:16:44 51°29.019 2°40.106 22.7607 0.127502 0.700798 -0.965744
2010-06-23 13:17:44 51°28.919 2°39.816 22.7584 0.13125 0.722536 -0.965744
2010-06-23 13:18:44 51°28.82 2°39.521 22.7749 0.158114 0.878108 -0.93092
2010-06-23 13:19:44 51°28.718 2°39.231 22.7845 0.152907 0.848019 -0.965744
2010-06-23 13:20:44 51°28.614 2°38.954 22.7868 0.105018 0.57295 -0.965744
2010-06-23 13:21:44 51°28.477 2°38.742 22.9487 0.086909 0.470708 -0.93092
2010-06-23 13:22:44 51°28.29 2°38.895 22.7575 0.093881 0.510138 -0.965744
2010-06-23 13:23:44 51°28.116 2°39.129 22.7646 0.103456 0.564493 -0.965744
2010-06-23 13:24:44 51°27.942 2°39.365 22.7738 0.093569 0.508618 -0.965744
2010-06-23 13:25:44 51°27.756 2°39.57 22.7596 0.191235 1.073832 -0.93092
2010-06-23 13:26:44 51°27.56 2°39.746 22.7696 0.173423 0.969282 -0.965744
2010-06-23 13:27:44 51°27.363 2°39.925 22.7841 0.098044 0.534368 -0.93092
2010-06-23 13:28:44 51°27.168 2°40.105 22.7232 0.677902 4.12113 -0.93092
2010-06-23 13:29:44 51°26.971 2°40.288 22.7241 0.153949 0.856185 -0.93092
2010-06-23 13:30:44 51°26.773 2°40.468 22.7266 0.172903 0.96746 -0.93092
2010-06-23 13:31:44 51°26.577 2°40.647 22.5113 0.566501 3.396759 -0.93092
2010-06-23 13:32:44 51°26.382 2°40.827 22.5403 0.146035 0.812949 -0.965744
2010-06-23 13:33:44 51°26.184 2°41.007 22.5827 0.145514 0.809393 -0.93092
2010-06-23 13:34:44 51°25.987 2°41.189 22.5525 0.171861 0.96357 -0.93092
2010-06-23 13:35:44 51°25.79 2°41.364 22.5743 0.149888 0.834982 -0.965744
2010-06-23 13:36:44 51°25.594 2°41.543 22.5731 0.134373 0.745012 -0.965744
2010-06-23 13:37:44 51°25.398 2°41.717 22.5709 0.119174 0.657329 -0.965744
2010-06-23 13:38:44 51°25.203 2°41.894 22.5734 0.124795 0.68983 -0.93092
2010-06-23 13:39:44 51°25.006 2°42.072 22.593 0.120007 0.662357 -0.965744
2010-06-23 13:40:44 51°24.809 2°42.247 22.6123 0.145306 0.809108 -0.93092
2010-06-23 13:41:44 51°24.615 2°42.431 22.6115 0.121152 0.669125 -0.965744
2010-06-23 13:42:44 51°24.446 2°42.675 22.6139 0.08129 0.441928 -0.965744
2010-06-23 13:43:44 51°24.284 2°42.935 22.6231 0.092112 0.503232 -0.93092
2010-06-23 13:44:44 51°24.129 2°43.204 22.6289 0.103665 0.569 -0.965744
2010-06-23 13:45:44 51°23.977 2°43.48 22.6333 0.103352 0.567325 -0.965744
2010-06-23 13:46:44 51°23.825 2°43.748 22.6391 0.101479 0.556755 -1.000568
2010-06-23 13:47:44 51°23.672 2°44.014 22.6505 0.102207 0.560914 -0.965744
2010-06-23 13:48:44 51°23.507 2°44.26 22.657 0.117404 0.648164 -0.965744
2010-06-23 13:49:44 51°23.336 2°44.499 22.6602 0.134061 0.744499 -0.965744
2010-06-23 13:50:44 51°23.156 2°44.723 22.6689 0.130938 0.726441 -0.965744
2010-06-23 13:51:44 51°22.972 2°44.938 22.6746 0.144369 0.804559 -0.93092
2010-06-23 13:52:44 51°22.776 2°45.123 22.6808 0.106371 0.585043 -0.965744
2010-06-23 13:53:44 51°22.569 2°45.273 22.6895 0.204049 1.157192 -0.93092
2010-06-23 13:54:44 51°22.346 2°45.34 22.6941 0.164675 0.923867 -0.965744
2010-06-23 13:55:44 51°22.125 2°45.4 22.6979 0.109597 0.603566 -0.965744
2010-06-23 13:56:44 51°21.903 2°45.465 22.7029 0.106683 0.586973 -0.965744
2010-06-23 13:57:44 51°21.683 2°45.529 22.7088 0.138017 0.767944 -0.93092
2010-06-23 13:58:44 51°21.464 2°45.592 22.7139 0.113553 0.626494 -0.965744
2010-06-23 13:59:44 51°21.245 2°45.656 22.7196 0.121776 0.673975 -0.965744
2010-06-23 14:00:44 51°21.024 2°45.718 22.7245 0.103769 0.570511 -0.965744
2010-06-23 14:01:44 51°20.807 2°45.807 22.7302 0.132083 0.733853 -0.965744
2010-06-23 14:02:44 51°20.593 2°45.903 22.7349 0.264282 1.520942 -0.965744
2010-06-23 14:03:44 51°20.405 2°46.082 22.7415 0.088574 0.484073 -0.965744
2010-06-23 14:04:44 51°20.23 2°46.294 22.7475 0.107516 0.592174 -0.93092
2010-06-23 14:05:44 51°20.05 2°46.496 22.7504 0.095755 0.524998 -0.965744
2010-06-23 14:06:44 51°19.857 2°46.674 22.7549 0.099501 0.546432 -0.965744
2010-06-23 14:07:44 51°19.663 2°46.851 22.7592 0.130313 0.723945 -0.965744
2010-06-23 14:08:44 51°19.468 2°47.028 22.7656 0.103352 0.568551 -0.965744
2010-06-23 14:09:44 51°19.273 2°47.206 22.7752 0.107412 0.591844 -0.965744
2010-06-23 14:10:44 51°19.077 2°47.381 22.7792 0.102312 0.562675 -0.965744
2010-06-23 14:11:44 51°18.886 2°47.567 22.7912 0.18561 1.049089 -0.93092
2010-06-23 14:12:44 51°18.766 2°47.852 22.793 0.080353 0.437872 -0.93092
2010-06-23 14:13:44 51°18.706 2°48.186 22.7982 0.086076 0.470267 -0.965744
2010-06-23 14:14:44 51°18.625 2°48.507 22.7975 0.102832 0.565763 -0.93092
2010-06-23 14:15:44 51°18.508 2°48.795 22.8094 0.134478 0.748466 -0.965744
2010-06-23 14:17:24 51°18.327 2°49.288 22.8238 0.092216 0.505159 -1.000568
2010-06-23 14:18:59 51°18.152 2°49.768 22.8225 0.096067 0.5271 -0.965744
2010-06-23 14:19:59 51°18.042 2°50.073 22.8348 0.10075 0.553835 -0.965744
2010-06-23 14:20:59 51°17.935 2°50.377 22.8329 0.090031 0.492758 -0.965744
2010-06-23 14:21:59 51°17.833 2°50.684 22.8417 0.097836 0.537185 -0.965744
2010-06-23 14:22:59 51°17.729 2°50.989 22.8481 0.089927 0.492127 -0.965744
2010-06-23 14:23:59 51°17.626 2°51.291 22.8464 0.105642 0.581827 -0.965744
2010-06-23 14:24:59 51°17.523 2°51.594 22.8695 0.134894 0.750828 -0.965744
2010-06-23 14:25:59 51°17.425 2°51.905 22.8455 0.099606 0.547264 -0.93092
2010-06-23 14:26:59 51°17.283 2°52.17 22.8618 0.136872 0.762455 -0.965744
2010-06-23 14:27:59 51°17.098 2°52.358 22.8865 0.151762 0.849503 -1.000568
2010-06-23 14:28:59 51°16.91 2°52.536 22.8752 0.116884 0.646481 -0.965744
2010-06-23 14:29:59 51°16.72 2°52.716 22.8989 0.12136 0.672276 -0.965744
2010-06-23 14:30:59 51°16.527 2°52.897 22.8996 0.125732 0.69759 -0.965744
2010-06-23 14:31:59 51°16.336 2°53.083 22.9115 0.11043 0.609258 -0.965744
2010-06-23 14:32:59 51°16.141 2°53.257 22.9102 0.10762 0.593106 -0.93092
2010-06-23 14:33:59 51°15.942 2°53.415 22.9205 0.117092 0.647578 -0.965744
2010-06-23 14:34:59 51°15.743 2°53.579 22.9344 0.128647 0.714384 -0.93092
2010-06-23 14:36:00 51°15.553 2°53.773 22.9306 0.095963 0.526328 -0.965744
2010-06-23 14:37:00 51°15.388 2°53.967 22.9359 0.096483 0.529337 -0.965744
2010-06-23 14:37:59 51°15.233 2°54.148 22.9258 0.080769 0.440115 -0.965744
2010-06-23 14:38:59 51°15.075 2°54.335 22.9585 0.110326 0.608542 -0.965744
2010-06-23 14:39:59 51°14.914 2°54.522 22.9587 0.123754 0.685981 -0.965744
2010-06-23 14:40:59 51°14.749 2°54.707 22.9651 0.114177 0.630677 -0.965744
2010-06-23 14:41:59 51°14.593 2°54.872 22.9881 0.139892 0.779686 -0.965744
2010-06-23 14:42:59 51°14.48 2°54.996 23.0258 0.098565 0.541119 -0.965744
2010-06-23 14:43:59 51°14.382 2°55.138 23.015 0.125212 0.694327 -0.93092
2010-06-23 14:44:59 51°14.272 2°55.277 22.9763 0.107828 0.59408 -0.93092
2010-06-23 14:46:00 51°14.175 2°55.375 23.0023 0.105122 0.578517 -1.000568
2010-06-23 14:47:02 51°14.088 2°55.443 23.0077 0.121568 0.673142 -0.965744
2010-06-23 14:48:00 51°14.009 2°55.498 23.0168 0.13479 0.749785 -0.965744
2010-06-23 14:48:59 51°13.933 2°55.548 23.0497 0.131354 0.729788 -0.93092
2010-06-23 14:49:59 51°13.872 2°55.594 23.0285 0.138434 0.770917 -0.93092
2010-06-23 14:51:02 51°13.824 2°55.634 23.0405 0.146972 0.820705 -0.965744
2010-06-23 14:52:02 51°13.778 2°55.685 23.0645 0.171965 0.967552 -0.93092
2010-06-23 14:53:02 51°13.722 2°55.784 23.0601 0.162176 0.909762 -1.000568
2010-06-23 14:54:00 51°13.679 2°55.888 23.0901 0.143119 0.798089 -0.93092
2010-06-23 14:55:03 51°13.662 2°55.955 23.0514 0.136248 0.757956 -0.965744